Time;durP1;ratioP1;P1;durP2;ratioP2;P2;SDS_P1;SDS_P2;PMS_P1;PMS_P2;Temp;Humidity;BMP_temperature;BMP_pressure;BME280_temperature;BME280_humidity;BME280_pressure;Samples;Min_cycle;Max_cycle;Signal;HPM_P1;HPM_P2
2022/02/16 00:00:10;;;;;;;6.88;2.15;;;;;;;;;;5078353;28;20028;-79
2022/02/16 00:02:36;;;;;;;6.97;2.28;;;;;;;;;;5078835;28;20283;-78
2022/02/16 00:05:01;;;;;;;4.30;2.10;;;;;;;;;;5060784;28;20078;-78
2022/02/16 00:07:26;;;;;;;4.18;2.33;;;;;;;;;;5080539;28;20111;-77
2022/02/16 00:09:52;;;;;;;4.68;2.30;;;;;;;;;;5077968;28;20028;-77
2022/02/16 00:12:20;;;;;;;6.68;2.00;;;;;;;;;;5060716;28;20028;-78
2022/02/16 00:14:45;;;;;;;5.95;1.90;;;;;;;;;;5061634;28;20429;-78
2022/02/16 00:17:13;;;;;;;4.32;2.00;;;;;;;;;;5056233;28;20044;-78
2022/02/16 00:19:38;;;;;;;2.35;1.83;;;;;;;;;;5063764;28;20056;-78
2022/02/16 00:22:06;;;;;;;3.67;1.95;;;;;;;;;;5078945;28;20464;-78
2022/02/16 00:24:31;;;;;;;4.28;2.10;;;;;;;;;;5083922;28;20028;-78
2022/02/16 00:26:59;;;;;;;5.40;1.90;;;;;;;;;;5086363;28;20043;-77
2022/02/16 00:29:24;;;;;;;4.60;1.83;;;;;;;;;;5087504;28;20604;-78
2022/02/16 00:31:50;;;;;;;5.65;1.73;;;;;;;;;;5072646;28;20108;-77
2022/02/16 00:34:18;;;;;;;3.80;1.90;;;;;;;;;;5057636;28;20492;-77
2022/02/16 00:36:43;;;;;;;5.10;1.65;;;;;;;;;;5076129;28;20040;-78
2022/02/16 00:39:09;;;;;;;7.32;1.80;;;;;;;;;;5078234;28;20024;-77
2022/02/16 00:41:34;;;;;;;3.05;1.52;;;;;;;;;;5062527;28;20086;-78
2022/02/16 00:44:00;;;;;;;3.70;1.88;;;;;;;;;;5076464;28;20020;-78
2022/02/16 00:46:28;;;;;;;6.72;1.90;;;;;;;;;;5058544;28;20124;-78
2022/02/16 00:48:53;;;;;;;4.20;1.75;;;;;;;;;;5079460;28;20384;-78
2022/02/16 00:51:18;;;;;;;3.67;1.38;;;;;;;;;;5062660;28;20120;-78
2022/02/16 00:53:46;;;;;;;5.45;1.45;;;;;;;;;;5078736;28;20028;-78
2022/02/16 00:56:14;;;;;;;4.40;1.58;;;;;;;;;;5077439;28;20025;-78
2022/02/16 00:58:44;;;;;;;3.92;1.40;;;;;;;;;;5062880;28;20456;-78
2022/02/16 01:01:10;;;;;;;3.75;1.60;;;;;;;;;;5058312;28;20017;-78
2022/02/16 01:03:38;;;;;;;6.65;1.75;;;;;;;;;;5075371;28;20032;-77
2022/02/16 01:06:03;;;;;;;5.80;1.60;;;;;;;;;;5056907;28;20032;-78
2022/02/16 01:08:29;;;;;;;4.88;1.40;;;;;;;;;;5056733;28;20401;-78
2022/02/16 01:10:57;;;;;;;2.63;1.52;;;;;;;;;;5061589;28;20032;-78
2022/02/16 01:13:24;;;;;;;5.90;1.65;;;;;;;;;;5076860;28;20034;-77
2022/02/16 01:15:51;;;;;;;3.35;1.58;;;;;;;;;;5055814;28;20460;-77
2022/02/16 01:18:19;;;;;;;3.50;1.30;;;;;;;;;;5076079;28;20392;-77
2022/02/16 01:20:45;;;;;;;4.95;1.88;;;;;;;;;;5071630;28;20107;-77
2022/02/16 01:23:11;;;;;;;2.50;1.73;;;;;;;;;;5080027;28;20085;-77
2022/02/16 01:25:37;;;;;;;4.78;1.40;;;;;;;;;;5074911;28;20085;-77
2022/02/16 01:28:04;;;;;;;6.00;1.60;;;;;;;;;;5073704;28;20472;-77
2022/02/16 01:30:30;;;;;;;3.80;1.50;;;;;;;;;;5078107;28;20021;-78
2022/02/16 01:32:55;;;;;;;4.60;1.70;;;;;;;;;;5052247;28;20108;-78
2022/02/16 01:35:21;;;;;;;2.03;1.30;;;;;;;;;;5057816;28;20028;-77
2022/02/16 01:37:46;;;;;;;5.10;1.63;;;;;;;;;;5076071;28;20024;-78
2022/02/16 01:40:12;;;;;;;3.17;1.33;;;;;;;;;;5054623;28;20549;-78
2022/02/16 01:42:38;;;;;;;3.63;1.63;;;;;;;;;;5072478;28;20034;-78
2022/02/16 01:45:05;;;;;;;5.07;1.40;;;;;;;;;;5075704;28;20016;-78
2022/02/16 01:47:32;;;;;;;3.72;1.40;;;;;;;;;;5056279;28;20391;-78
2022/02/16 01:50:00;;;;;;;4.78;1.70;;;;;;;;;;5077726;28;20036;-78
2022/02/16 01:52:26;;;;;;;2.75;1.17;;;;;;;;;;5078895;28;20023;-78
2022/02/16 01:54:51;;;;;;;5.95;1.70;;;;;;;;;;5076355;28;20028;-78
2022/02/16 01:57:19;;;;;;;4.93;1.20;;;;;;;;;;5057278;28;20105;-78
2022/02/16 01:59:47;;;;;;;3.05;1.42;;;;;;;;;;5062364;28;20043;-77
2022/02/16 02:02:15;;;;;;;4.70;1.30;;;;;;;;;;5075659;28;20157;-77
2022/02/16 02:04:43;;;;;;;5.40;1.80;;;;;;;;;;5056677;28;20056;-78
2022/02/16 02:07:08;;;;;;;2.90;1.33;;;;;;;;;;5058831;28;20081;-77
2022/02/16 02:09:35;;;;;;;6.28;1.67;;;;;;;;;;5079430;28;20037;-77
2022/02/16 02:12:00;;;;;;;6.60;1.70;;;;;;;;;;5061837;28;20674;-77
2022/02/16 02:14:30;;;;;;;6.10;1.42;;;;;;;;;;5074861;28;20021;-78
2022/02/16 02:16:56;;;;;;;5.90;1.73;;;;;;;;;;5075897;28;20052;-77
2022/02/16 02:19:24;;;;;;;3.40;1.80;;;;;;;;;;5080556;28;20051;-77
2022/02/16 02:21:54;;;;;;;4.35;1.33;;;;;;;;;;5076158;28;20080;-78
2022/02/16 02:24:19;;;;;;;3.45;1.20;;;;;;;;;;5061209;28;20029;-78
2022/02/16 02:26:47;;;;;;;5.75;1.40;;;;;;;;;;5059369;28;20054;-77
2022/02/16 02:29:15;;;;;;;3.45;1.30;;;;;;;;;;5072944;28;20020;-76
2022/02/16 02:31:40;;;;;;;5.20;1.80;;;;;;;;;;5055982;28;20037;-78
2022/02/16 02:34:08;;;;;;;2.50;1.20;;;;;;;;;;5068068;28;20051;-78
2022/02/16 02:36:34;;;;;;;2.05;1.00;;;;;;;;;;5075366;28;20032;-78
2022/02/16 02:39:02;;;;;;;2.33;1.00;;;;;;;;;;5075577;28;20797;-78
2022/02/16 02:41:30;;;;;;;4.32;1.85;;;;;;;;;;5074342;28;20134;-78
2022/02/16 02:43:56;;;;;;;5.88;1.30;;;;;;;;;;5071566;28;20439;-78
2022/02/16 02:46:21;;;;;;;5.15;1.38;;;;;;;;;;5074980;28;20032;-76
2022/02/16 02:48:47;;;;;;;1.75;1.10;;;;;;;;;;5076286;28;20024;-77
2022/02/16 02:51:16;;;;;;;4.65;1.00;;;;;;;;;;5060530;28;20308;-78
2022/02/16 02:53:42;;;;;;;3.67;1.23;;;;;;;;;;5075503;28;20500;-77
2022/02/16 02:56:08;;;;;;;2.47;1.15;;;;;;;;;;5055841;28;20048;-77
2022/02/16 02:58:33;;;;;;;2.40;1.10;;;;;;;;;;5071482;28;20021;-77
2022/02/16 03:01:03;;;;;;;4.40;1.30;;;;;;;;;;5053105;28;20031;-77
2022/02/16 03:03:29;;;;;;;2.85;1.30;;;;;;;;;;5086580;28;20096;-76
2022/02/16 03:05:55;;;;;;;2.15;1.20;;;;;;;;;;5090412;28;20086;-77
2022/02/16 03:08:20;;;;;;;2.65;1.10;;;;;;;;;;5085373;28;20040;-76
2022/02/16 03:10:48;;;;;;;3.33;1.60;;;;;;;;;;5071829;28;20040;-76
2022/02/16 03:13:19;;;;;;;2.30;1.33;;;;;;;;;;5070047;28;20129;-76
2022/02/16 03:15:49;;;;;;;2.20;1.10;;;;;;;;;;5080941;28;20336;-77
2022/02/16 03:18:14;;;;;;;;;;;;;;;;;;5078180;28;20016;-77
2022/02/16 03:20:42;;;;;;;2.08;1.25;;;;;;;;;;5075726;28;19948;-77
2022/02/16 03:23:08;;;;;;;1.75;0.93;;;;;;;;;;5082401;28;20036;-77
2022/02/16 03:25:36;;;;;;;2.15;1.00;;;;;;;;;;5073473;28;20021;-78
2022/02/16 03:28:06;;;;;;;1.50;0.80;;;;;;;;;;5055889;28;20029;-78
2022/02/16 03:30:34;;;;;;;2.45;0.90;;;;;;;;;;5072740;28;20028;-77
2022/02/16 03:33:04;;;;;;;1.25;0.88;;;;;;;;;;5074606;28;20389;-77
2022/02/16 03:35:31;;;;;;;1.58;1.00;;;;;;;;;;5073860;28;20024;-78
2022/02/16 03:37:56;;;;;;;2.17;1.13;;;;;;;;;;5073264;28;20031;-77
2022/02/16 03:40:22;;;;;;;3.33;1.25;;;;;;;;;;5068214;28;20040;-77
2022/02/16 03:42:48;;;;;;;2.17;1.40;;;;;;;;;;5074750;28;20023;-77
2022/02/16 03:45:15;;;;;;;1.95;1.00;;;;;;;;;;5073578;28;20107;-77
2022/02/16 03:47:41;;;;;;;6.82;1.10;;;;;;;;;;5053493;28;20036;-77
2022/02/16 03:50:07;;;;;;;2.00;1.17;;;;;;;;;;5069055;28;20115;-77
2022/02/16 03:52:32;;;;;;;2.17;1.13;;;;;;;;;;5071273;28;20039;-77
2022/02/16 03:54:58;;;;;;;1.98;1.10;;;;;;;;;;5069203;28;20241;-77
2022/02/16 03:57:25;;;;;;;1.77;1.00;;;;;;;;;;5073036;28;20034;-77
2022/02/16 03:59:51;;;;;;;2.97;1.15;;;;;;;;;;5067770;28;20078;-77
2022/02/16 04:02:16;;;;;;;1.70;1.23;;;;;;;;;;5076923;28;20028;-76
2022/02/16 04:04:42;;;;;;;1.08;0.90;;;;;;;;;;5056088;28;20063;-77
2022/02/16 04:07:10;;;;;;;2.10;1.20;;;;;;;;;;5054997;28;20024;-76
2022/02/16 04:09:35;;;;;;;2.92;1.27;;;;;;;;;;5056484;28;20031;-79
2022/02/16 04:12:03;;;;;;;2.15;1.10;;;;;;;;;;5071351;28;20404;-77
2022/02/16 04:14:28;;;;;;;3.53;1.20;;;;;;;;;;5072278;28;20024;-77
2022/02/16 04:16:53;;;;;;;1.35;0.82;;;;;;;;;;5076386;28;20032;-77
2022/02/16 04:19:19;;;;;;;2.42;1.10;;;;;;;;;;5072555;28;20029;-78
2022/02/16 04:21:45;;;;;;;4.70;1.52;;;;;;;;;;5074168;28;20020;-78
2022/02/16 04:24:10;;;;;;;3.10;1.13;;;;;;;;;;5075182;28;20046;-77
2022/02/16 04:26:38;;;;;;;2.22;0.90;;;;;;;;;;5053587;28;20037;-77
2022/02/16 04:29:03;;;;;;;4.07;1.17;;;;;;;;;;5053455;28;20489;-78
2022/02/16 04:31:31;;;;;;;1.92;1.13;;;;;;;;;;5072263;28;20102;-77
2022/02/16 04:33:56;;;;;;;2.60;1.00;;;;;;;;;;5073370;28;20500;-77
2022/02/16 04:36:27;;;;;;;1.70;1.13;;;;;;;;;;5073363;28;20020;-77
2022/02/16 04:38:59;;;;;;;1.02;0.70;;;;;;;;;;5070999;28;20032;-78
2022/02/16 04:41:25;;;;;;;1.80;0.90;;;;;;;;;;5072016;28;20430;-77
2022/02/16 04:43:51;;;;;;;2.75;0.88;;;;;;;;;;5071553;28;20024;-78
2022/02/16 04:46:17;;;;;;;1.15;0.90;;;;;;;;;;5075369;28;20024;-77
2022/02/16 04:48:46;;;;;;;2.50;0.93;;;;;;;;;;5057299;28;20036;-77
2022/02/16 04:51:14;;;;;;;4.88;1.80;;;;;;;;;;5072478;28;20035;-77
2022/02/16 04:53:42;;;;;;;2.47;1.10;;;;;;;;;;5070843;28;20028;-77
2022/02/16 04:56:08;;;;;;;2.75;0.90;;;;;;;;;;5072005;28;20028;-77
2022/02/16 04:58:34;;;;;;;1.90;0.93;;;;;;;;;;5058503;28;20037;-77
2022/02/16 05:00:59;;;;;;;3.60;1.77;;;;;;;;;;5071593;28;20096;-77
2022/02/16 05:03:28;;;;;;;0.82;0.75;;;;;;;;;;5058347;28;20063;-77
2022/02/16 05:05:53;;;;;;;1.27;1.00;;;;;;;;;;5062788;28;20024;-77
2022/02/16 05:08:19;;;;;;;2.00;1.25;;;;;;;;;;5055185;28;20139;-78
2022/02/16 05:10:44;;;;;;;2.58;1.25;;;;;;;;;;5079254;28;20085;-78
2022/02/16 05:13:09;;;;;;;7.53;3.53;;;;;;;;;;5078686;28;20464;-78
2022/02/16 05:15:35;;;;;;;2.72;0.85;;;;;;;;;;5078403;28;20032;-78
2022/02/16 05:18:01;;;;;;;1.65;0.85;;;;;;;;;;5075898;28;20078;-78
2022/02/16 05:20:28;;;;;;;1.25;1.00;;;;;;;;;;5075476;28;20503;-78
2022/02/16 05:22:56;;;;;;;1.85;0.80;;;;;;;;;;5078040;28;20028;-78
2022/02/16 05:25:24;;;;;;;1.73;0.80;;;;;;;;;;5058683;28;20136;-78
2022/02/16 05:27:50;;;;;;;2.63;1.00;;;;;;;;;;5075623;28;20028;-79
2022/02/16 05:30:15;;;;;;;3.13;0.90;;;;;;;;;;5075325;28;20146;-78
2022/02/16 05:32:41;;;;;;;2.13;1.10;;;;;;;;;;5058563;28;20452;-78
2022/02/16 05:35:09;;;;;;;3.22;0.90;;;;;;;;;;5073325;28;20366;-78
2022/02/16 05:37:34;;;;;;;1.20;0.88;;;;;;;;;;5073701;28;20192;-77
2022/02/16 05:40:00;;;;;;;1.95;0.85;;;;;;;;;;5070937;28;20577;-78
2022/02/16 05:42:25;;;;;;;1.75;1.00;;;;;;;;;;5077560;28;20124;-78
2022/02/16 05:44:51;;;;;;;4.45;1.10;;;;;;;;;;5057527;28;20403;-78
2022/02/16 05:47:16;;;;;;;1.73;0.70;;;;;;;;;;5061144;28;20457;-78
2022/02/16 05:49:44;;;;;;;1.48;0.95;;;;;;;;;;5080122;28;20028;-78
2022/02/16 05:52:09;;;;;;;2.05;0.95;;;;;;;;;;5076074;28;20037;-78
2022/02/16 05:54:35;;;;;;;3.33;1.27;;;;;;;;;;5077019;28;20032;-78
2022/02/16 05:57:00;;;;;;;2.25;0.90;;;;;;;;;;5081293;28;20043;-78
2022/02/16 05:59:26;;;;;;;3.00;1.05;;;;;;;;;;5060250;28;20377;-78
2022/02/16 06:01:51;;;;;;;2.72;0.93;;;;;;;;;;5073284;28;20025;-77
2022/02/16 06:04:17;;;;;;;2.25;1.02;;;;;;;;;;5076506;28;20048;-79
2022/02/16 06:06:43;;;;;;;2.92;0.82;;;;;;;;;;5076697;28;20058;-78
2022/02/16 06:09:09;;;;;;;1.85;1.02;;;;;;;;;;5053238;28;20520;-77
2022/02/16 06:11:34;;;;;;;1.00;0.80;;;;;;;;;;5056110;28;20116;-76
2022/02/16 06:14:02;;;;;;;1.80;1.00;;;;;;;;;;5073163;28;20035;-77
2022/02/16 06:16:30;;;;;;;4.05;0.90;;;;;;;;;;5070614;28;20021;-77
2022/02/16 06:18:56;;;;;;;2.55;0.90;;;;;;;;;;5066462;28;20103;-76
2022/02/16 06:21:21;;;;;;;1.60;0.93;;;;;;;;;;5056730;28;20568;-76
2022/02/16 06:23:46;;;;;;;1.77;1.05;;;;;;;;;;5092140;28;20151;-77
2022/02/16 06:26:14;;;;;;;1.85;0.90;;;;;;;;;;5068033;28;20092;-76
2022/02/16 06:28:44;;;;;;;1.25;1.00;;;;;;;;;;5071009;28;20185;-77
2022/02/16 06:31:10;;;;;;;2.75;1.08;;;;;;;;;;5050912;28;20032;-76
2022/02/16 06:33:35;;;;;;;3.75;1.58;;;;;;;;;;5069683;28;20107;-78
2022/02/16 06:36:01;;;;;;;3.05;1.40;;;;;;;;;;5070383;28;20020;-77
2022/02/16 06:38:27;;;;;;;3.85;1.80;;;;;;;;;;5072544;28;20058;-76
2022/02/16 06:40:55;;;;;;;2.22;1.00;;;;;;;;;;5052016;28;20083;-77
2022/02/16 06:43:21;;;;;;;2.47;1.00;;;;;;;;;;5070421;28;20028;-77
2022/02/16 06:45:46;;;;;;;2.38;1.00;;;;;;;;;;5068194;28;20036;-76
2022/02/16 06:48:12;;;;;;;4.93;1.65;;;;;;;;;;5089090;28;20082;-76
2022/02/16 06:50:37;;;;;;;3.47;1.30;;;;;;;;;;5072845;28;20028;-77
2022/02/16 06:53:06;;;;;;;2.42;1.40;;;;;;;;;;5054261;28;20542;-77
2022/02/16 06:55:33;;;;;;;4.43;1.13;;;;;;;;;;5070664;28;20031;-77
2022/02/16 06:57:58;;;;;;;4.97;1.00;;;;;;;;;;5070083;28;20032;-80
2022/02/16 07:00:24;;;;;;;1.92;1.17;;;;;;;;;;5072277;28;20028;-75
2022/02/16 07:02:49;;;;;;;2.08;1.20;;;;;;;;;;5051779;28;20025;-76
2022/02/16 07:05:15;;;;;;;3.78;1.80;;;;;;;;;;5067709;28;20077;-74
2022/02/16 07:07:43;;;;;;;2.83;1.63;;;;;;;;;;5055861;28;20031;-74
2022/02/16 07:10:09;;;;;;;3.75;1.10;;;;;;;;;;5050062;28;20090;-77
2022/02/16 07:12:38;;;;;;;1.95;1.17;;;;;;;;;;5064329;28;20419;-77
2022/02/16 07:15:10;;;;;;;4.57;1.65;;;;;;;;;;5061954;28;20472;-77
2022/02/16 07:17:38;;;;;;;3.08;1.40;;;;;;;;;;5063775;28;20045;-77
2022/02/16 07:20:04;;;;;;;2.20;1.08;;;;;;;;;;5055542;28;20035;-77
2022/02/16 07:22:32;;;;;;;3.90;1.50;;;;;;;;;;5069736;28;20384;-76
2022/02/16 07:24:59;;;;;;;2.28;1.00;;;;;;;;;;5066216;28;20036;-76
2022/02/16 07:27:25;;;;;;;2.03;1.27;;;;;;;;;;5049559;28;20029;-75
2022/02/16 07:29:52;;;;;;;3.25;1.20;;;;;;;;;;5066160;28;20043;-75
2022/02/16 07:32:18;;;;;;;3.33;1.13;;;;;;;;;;5067722;28;20933;-76
2022/02/16 07:34:43;;;;;;;2.00;0.90;;;;;;;;;;5052629;28;20043;-76
2022/02/16 07:37:09;;;;;;;2.03;0.98;;;;;;;;;;5065232;28;20506;-75
2022/02/16 07:39:37;;;;;;;1.70;0.90;;;;;;;;;;5068695;28;20032;-75
2022/02/16 07:42:05;;;;;;;1.48;1.00;;;;;;;;;;5067159;28;20059;-75
2022/02/16 07:44:31;;;;;;;1.85;1.10;;;;;;;;;;5051846;28;20028;-75
2022/02/16 07:46:56;;;;;;;2.00;0.82;;;;;;;;;;5065097;28;20609;-76
2022/02/16 07:49:22;;;;;;;1.73;0.90;;;;;;;;;;5070530;28;20093;-74
2022/02/16 07:51:48;;;;;;;2.83;0.80;;;;;;;;;;5048409;28;20100;-74
2022/02/16 07:54:13;;;;;;;0.98;0.73;;;;;;;;;;5055323;28;20558;-76
2022/02/16 07:56:39;;;;;;;2.10;0.98;;;;;;;;;;5066316;28;20032;-75
2022/02/16 07:59:04;;;;;;;2.13;0.90;;;;;;;;;;5048572;28;20024;-77
2022/02/16 08:01:30;;;;;;;1.88;1.08;;;;;;;;;;5049463;28;20012;-76
2022/02/16 08:04:15;;;;;;;1.80;0.82;;;;;;;;;;5073352;28;20029;-75
2022/02/16 08:06:41;;;;;;;0.95;0.70;;;;;;;;;;5066296;28;20082;-76
2022/02/16 08:09:10;;;;;;;1.63;0.93;;;;;;;;;;5054054;28;20120;-76
2022/02/16 08:11:40;;;;;;;2.08;0.98;;;;;;;;;;5069179;28;20055;-76
2022/02/16 08:14:09;;;;;;;1.65;1.00;;;;;;;;;;5063231;28;20017;-76
2022/02/16 08:16:36;;;;;;;1.20;0.85;;;;;;;;;;5051732;28;20037;-76
2022/02/16 08:19:06;;;;;;;3.17;1.45;;;;;;;;;;5071857;28;20028;-76
2022/02/16 08:21:32;;;;;;;1.45;0.95;;;;;;;;;;5072301;28;20021;-76
2022/02/16 08:23:57;;;;;;;1.52;1.02;;;;;;;;;;5071557;28;20051;-76
2022/02/16 08:26:23;;;;;;;1.08;0.75;;;;;;;;;;5069586;28;20031;-76
2022/02/16 08:28:49;;;;;;;1.83;1.13;;;;;;;;;;5071494;28;20158;-75
2022/02/16 08:31:14;;;;;;;1.83;1.00;;;;;;;;;;5052434;28;20056;-76
2022/02/16 08:33:44;;;;;;;1.75;1.10;;;;;;;;;;5073111;28;20056;-75
2022/02/16 08:36:13;;;;;;;1.90;1.00;;;;;;;;;;5071996;28;20024;-75
2022/02/16 08:38:40;;;;;;;2.17;0.70;;;;;;;;;;5071639;28;20188;-75
2022/02/16 08:41:06;;;;;;;2.13;0.80;;;;;;;;;;5054751;28;20033;-76
2022/02/16 08:43:32;;;;;;;0.77;0.52;;;;;;;;;;5072855;28;20685;-76
2022/02/16 08:46:00;;;;;;;1.40;0.88;;;;;;;;;;5069463;28;20036;-75
2022/02/16 08:48:27;;;;;;;1.10;0.65;;;;;;;;;;5069927;28;20500;-76
2022/02/16 08:50:55;;;;;;;0.77;0.65;;;;;;;;;;5051038;28;20032;-76
2022/02/16 08:53:22;;;;;;;1.20;0.70;;;;;;;;;;5071507;28;20522;-75
2022/02/16 08:55:49;;;;;;;2.28;0.88;;;;;;;;;;5070577;28;20043;-75
2022/02/16 08:58:17;;;;;;;1.50;0.90;;;;;;;;;;5053088;28;20183;-76
2022/02/16 09:00:43;;;;;;;2.28;1.30;;;;;;;;;;5076569;28;20021;-76
2022/02/16 09:03:11;;;;;;;2.05;0.73;;;;;;;;;;5070508;28;20082;-77
2022/02/16 09:05:38;;;;;;;0.70;0.60;;;;;;;;;;5054317;28;20025;-77
2022/02/16 09:08:06;;;;;;;1.08;0.63;;;;;;;;;;5073074;28;20031;-77
2022/02/16 09:10:34;;;;;;;1.02;0.70;;;;;;;;;;5059746;28;20441;-77
2022/02/16 09:13:00;;;;;;;1.27;0.60;;;;;;;;;;5052882;28;20365;-77
2022/02/16 09:15:28;;;;;;;1.10;0.68;;;;;;;;;;5057005;28;20035;-77
2022/02/16 09:17:57;;;;;;;2.08;0.80;;;;;;;;;;5064927;28;20099;-77
2022/02/16 09:20:24;;;;;;;1.00;0.70;;;;;;;;;;5067509;28;20139;-76
2022/02/16 09:22:51;;;;;;;0.70;0.70;;;;;;;;;;5073951;28;20028;-77
2022/02/16 09:25:17;;;;;;;1.08;0.70;;;;;;;;;;5055392;28;20032;-77
2022/02/16 09:27:43;;;;;;;1.73;0.80;;;;;;;;;;5071323;28;20035;-78
2022/02/16 09:30:10;;;;;;;0.70;0.60;;;;;;;;;;5067564;28;20785;-77
2022/02/16 09:32:38;;;;;;;1.00;0.70;;;;;;;;;;5069606;28;20048;-75
2022/02/16 09:35:04;;;;;;;2.92;0.57;;;;;;;;;;5051702;28;20119;-75
2022/02/16 09:37:31;;;;;;;1.27;1.10;;;;;;;;;;5050999;28;20078;-75
2022/02/16 09:39:59;;;;;;;1.25;0.90;;;;;;;;;;5069314;28;20028;-75
2022/02/16 09:42:25;;;;;;;2.03;1.33;;;;;;;;;;5066476;28;20025;-75
2022/02/16 09:45:03;;;;;;;0.93;0.80;;;;;;;;;;5046310;28;20029;-75
2022/02/16 09:47:30;;;;;;;1.90;0.90;;;;;;;;;;5053398;28;20039;-75
2022/02/16 09:50:00;;;;;;;1.27;0.88;;;;;;;;;;5051483;28;20408;-76
2022/02/16 09:52:27;;;;;;;0.88;0.73;;;;;;;;;;5069832;28;20024;-74
2022/02/16 09:54:53;;;;;;;1.95;0.90;;;;;;;;;;5055466;28;20035;-73
2022/02/16 09:57:19;;;;;;;1.27;0.90;;;;;;;;;;5074868;28;20020;-75
2022/02/16 09:59:45;;;;;;;1.60;1.00;;;;;;;;;;5069819;28;20024;-75
2022/02/16 10:02:12;;;;;;;2.95;1.20;;;;;;;;;;5072384;28;20564;-75
2022/02/16 10:04:42;;;;;;;1.40;1.00;;;;;;;;;;5051872;28;20039;-76
2022/02/16 10:07:33;;;;;;;1.20;0.90;;;;;;;;;;5049409;28;20108;-76
2022/02/16 10:10:20;;;;;;;2.15;0.98;;;;;;;;;;5068716;28;20110;-75
2022/02/16 10:12:56;;;;;;;2.80;1.30;;;;;;;;;;5067701;28;20031;-74
2022/02/16 10:15:35;;;;;;;1.35;0.88;;;;;;;;;;5057238;28;20020;-75
2022/02/16 10:18:06;;;;;;;1.10;0.95;;;;;;;;;;5067206;28;20502;-74
2022/02/16 10:20:31;;;;;;;1.55;0.80;;;;;;;;;;5065964;28;20028;-74
2022/02/16 10:22:57;;;;;;;1.60;0.80;;;;;;;;;;5068011;28;20166;-74
2022/02/16 10:25:24;;;;;;;1.08;0.90;;;;;;;;;;5069614;28;20032;-74
2022/02/16 10:28:12;;;;;;;1.50;0.88;;;;;;;;;;5069730;28;20024;-74
2022/02/16 10:31:04;;;;;;;1.35;0.80;;;;;;;;;;5067368;28;20511;-74
2022/02/16 10:33:46;;;;;;;2.00;1.27;;;;;;;;;;5071945;28;20516;-75
2022/02/16 10:36:14;;;;;;;1.20;1.05;;;;;;;;;;5067447;28;20042;-75
2022/02/16 10:38:57;;;;;;;2.13;1.30;;;;;;;;;;5066685;28;20488;-75
2022/02/16 10:41:52;;;;;;;1.10;0.80;;;;;;;;;;5067194;28;20024;-75
2022/02/16 10:44:22;;;;;;;0.95;0.70;;;;;;;;;;5046554;28;20056;-74
2022/02/16 10:47:07;;;;;;;1.38;1.00;;;;;;;;;;5066791;28;20376;-74
2022/02/16 10:49:37;;;;;;;0.75;0.70;;;;;;;;;;5066326;28;20036;-74
2022/02/16 10:52:10;;;;;;;1.25;1.05;;;;;;;;;;5047895;28;20111;-75
2022/02/16 10:54:36;;;;;;;1.05;0.90;;;;;;;;;;5053685;28;20036;-75
2022/02/16 10:57:02;;;;;;;0.93;0.93;;;;;;;;;;5052075;28;20078;-75
2022/02/16 10:59:28;;;;;;;1.23;1.10;;;;;;;;;;5056367;28;20031;-75
2022/02/16 11:01:57;;;;;;;1.30;1.20;;;;;;;;;;5040298;28;20040;-74
2022/02/16 11:04:26;;;;;;;1.17;1.08;;;;;;;;;;5067319;28;20025;-75
2022/02/16 11:06:52;;;;;;;1.25;1.20;;;;;;;;;;5051647;28;20129;-77
2022/02/16 11:09:25;;;;;;;0.98;0.98;;;;;;;;;;5078343;28;20024;-77
2022/02/16 11:11:55;;;;;;;2.03;1.20;;;;;;;;;;5073476;28;20117;-77
2022/02/16 11:14:29;;;;;;;1.55;1.00;;;;;;;;;;5051296;28;20031;-76
2022/02/16 11:16:58;;;;;;;1.50;1.00;;;;;;;;;;5057626;28;20039;-77
2022/02/16 11:19:35;;;;;;;1.00;1.00;;;;;;;;;;5053517;28;20048;-77
2022/02/16 11:22:06;;;;;;;1.23;1.13;;;;;;;;;;5053227;28;20101;-77
2022/02/16 11:24:39;;;;;;;1.00;0.90;;;;;;;;;;5070666;28;20033;-76
2022/02/16 11:27:26;;;;;;;1.15;1.10;;;;;;;;;;5069846;28;20024;-78
2022/02/16 11:29:56;;;;;;;1.58;0.90;;;;;;;;;;5069571;28;20108;-75
2022/02/16 11:32:31;;;;;;;1.80;1.10;;;;;;;;;;5049968;28;20032;-77
2022/02/16 11:35:21;;;;;;;1.48;1.17;;;;;;;;;;5050558;28;20024;-76
2022/02/16 11:37:52;;;;;;;1.17;0.90;;;;;;;;;;5069577;28;20032;-78
2022/02/16 11:40:34;;;;;;;1.10;1.00;;;;;;;;;;5068389;28;20114;-77
2022/02/16 11:43:02;;;;;;;1.15;1.02;;;;;;;;;;5052078;28;20032;-78
2022/02/16 11:45:48;;;;;;;1.90;1.50;;;;;;;;;;5053814;28;20025;-77
2022/02/16 11:48:48;;;;;;;1.55;1.00;;;;;;;;;;5073050;28;20028;-77
2022/02/16 11:51:25;;;;;;;;;;;;;;;;;;5069555;28;20475;-78
2022/02/16 11:53:54;;;;;;;1.10;1.00;;;;;;;;;;5063635;28;20308;-77
2022/02/16 11:56:22;;;;;;;1.00;0.80;;;;;;;;;;5063924;28;20051;-76
2022/02/16 11:59:23;;;;;;;1.77;1.23;;;;;;;;;;5068172;28;20025;-75
2022/02/16 12:02:08;;;;;;;1.67;1.10;;;;;;;;;;5071610;28;20325;-74
2022/02/16 12:04:48;;;;;;;1.25;1.15;;;;;;;;;;5071236;28;20032;-74
2022/02/16 12:07:28;;;;;;;11.55;3.03;;;;;;;;;;5075600;28;20025;-75
2022/02/16 12:10:15;;;;;;;6.25;1.63;;;;;;;;;;5051699;28;20024;-75
2022/02/16 12:12:42;;;;;;;1.25;1.00;;;;;;;;;;5057721;28;20484;-75
2022/02/16 12:15:08;;;;;;;0.98;0.93;;;;;;;;;;5059965;28;20035;-74
2022/02/16 12:17:35;;;;;;;2.35;0.80;;;;;;;;;;5072283;28;20558;-75
2022/02/16 12:20:03;;;;;;;0.90;0.60;;;;;;;;;;5071742;28;20031;-75
2022/02/16 12:22:29;;;;;;;0.73;0.73;;;;;;;;;;5051818;28;20020;-75
2022/02/16 12:24:54;;;;;;;0.57;0.52;;;;;;;;;;5074346;28;20020;-75
2022/02/16 12:27:23;;;;;;;0.65;0.52;;;;;;;;;;5069923;28;20077;-75
2022/02/16 12:29:49;;;;;;;0.60;0.55;;;;;;;;;;5072066;28;20040;-74
2022/02/16 12:32:19;;;;;;;0.82;0.75;;;;;;;;;;5052454;28;20040;-75
2022/02/16 12:34:46;;;;;;;0.80;0.80;;;;;;;;;;5070162;28;20036;-74
2022/02/16 12:37:17;;;;;;;0.40;0.40;;;;;;;;;;5052671;28;20039;-74
2022/02/16 12:39:59;;;;;;;0.68;0.52;;;;;;;;;;5054853;28;20021;-74
2022/02/16 12:42:46;;;;;;;1.05;0.70;;;;;;;;;;5050990;28;20389;-74
2022/02/16 12:45:24;;;;;;;0.90;0.90;;;;;;;;;;5070150;28;20131;-75
2022/02/16 12:47:58;;;;;;;1.15;1.00;;;;;;;;;;5054688;28;20020;-74
2022/02/16 12:50:26;;;;;;;0.60;0.60;;;;;;;;;;5048501;28;20032;-75
2022/02/16 12:52:53;;;;;;;0.70;0.70;;;;;;;;;;5051368;28;20060;-75
2022/02/16 12:55:18;;;;;;;1.15;0.80;;;;;;;;;;5065207;28;20417;-75
2022/02/16 12:57:45;;;;;;;0.90;0.90;;;;;;;;;;5069344;28;20036;-75
2022/02/16 13:03:01;;;;;;;1.27;1.10;;;;;;;;;;5070395;28;20507;-75
2022/02/16 13:05:47;;;;;;;1.40;1.15;;;;;;;;;;5076185;28;20058;-75
2022/02/16 13:08:14;;;;;;;1.00;0.85;;;;;;;;;;5049411;28;20028;-75
2022/02/16 13:10:41;;;;;;;0.82;0.60;;;;;;;;;;5061347;28;20032;-75
2022/02/16 13:13:20;;;;;;;0.68;0.68;;;;;;;;;;5065777;28;20028;-75
2022/02/16 13:15:47;;;;;;;1.10;0.80;;;;;;;;;;5050487;28;20041;-74
2022/02/16 13:18:14;;;;;;;0.40;0.40;;;;;;;;;;5067762;28;20036;-75
2022/02/16 13:20:42;;;;;;;1.65;1.00;;;;;;;;;;5051036;28;20032;-75
2022/02/16 13:23:21;;;;;;;1.33;0.75;;;;;;;;;;5052351;28;20027;-74
2022/02/16 13:25:50;;;;;;;0.50;0.50;;;;;;;;;;5053210;28;20032;-73
2022/02/16 13:28:24;;;;;;;0.50;0.50;;;;;;;;;;5052180;28;20127;-74
2022/02/16 13:30:52;;;;;;;1.70;0.80;;;;;;;;;;5052897;28;20573;-75
2022/02/16 13:33:23;;;;;;;5.55;2.78;;;;;;;;;;5051927;28;20035;-75
2022/02/16 13:35:51;;;;;;;4.35;2.38;;;;;;;;;;5053796;28;21608;-75
2022/02/16 13:38:35;;;;;;;1.27;0.90;;;;;;;;;;5067526;28;20040;-75
2022/02/16 13:41:18;;;;;;;1.23;1.13;;;;;;;;;;5049147;28;20035;-74
2022/02/16 13:43:59;;;;;;;1.80;1.38;;;;;;;;;;5069553;28;20070;-75
2022/02/16 13:46:31;;;;;;;1.67;1.25;;;;;;;;;;5073263;28;20021;-75
2022/02/16 13:49:22;;;;;;;1.15;0.60;;;;;;;;;;5072277;28;20032;-75
2022/02/16 13:51:49;;;;;;;0.93;0.70;;;;;;;;;;5069649;28;20028;-78
2022/02/16 13:54:35;;;;;;;0.77;0.65;;;;;;;;;;5055764;28;20117;-77
2022/02/16 13:57:18;;;;;;;0.95;0.80;;;;;;;;;;5072672;28;20025;-75
2022/02/16 14:00:00;;;;;;;0.40;0.40;;;;;;;;;;5050406;28;20034;-75
2022/02/16 14:02:27;;;;;;;2.05;1.30;;;;;;;;;;5068266;28;20024;-75
2022/02/16 14:04:52;;;;;;;0.50;0.50;;;;;;;;;;5052623;28;20127;-75
2022/02/16 14:07:19;;;;;;;2.10;0.88;;;;;;;;;;5066334;28;20525;-75
2022/02/16 14:09:45;;;;;;;2.13;1.17;;;;;;;;;;5076119;28;20032;-75
2022/02/16 14:12:11;;;;;;;4.05;1.52;;;;;;;;;;5072022;28;20044;-75
2022/02/16 14:14:38;;;;;;;2.63;0.73;;;;;;;;;;5049680;28;20028;-75
2022/02/16 14:17:04;;;;;;;2.38;1.50;;;;;;;;;;5067995;28;20069;-75
2022/02/16 14:19:30;;;;;;;2.08;1.35;;;;;;;;;;5052298;28;20028;-75
2022/02/16 14:22:02;;;;;;;1.80;1.20;;;;;;;;;;5065909;28;20103;-75
2022/02/16 14:24:33;;;;;;;1.80;1.10;;;;;;;;;;5050188;28;20176;-75
2022/02/16 14:27:07;;;;;;;1.48;0.90;;;;;;;;;;5050804;28;20037;-75
2022/02/16 14:29:33;;;;;;;2.13;1.13;;;;;;;;;;5056179;28;20178;-75
2022/02/16 14:31:59;;;;;;;0.80;0.80;;;;;;;;;;5049599;28;20032;-75
2022/02/16 14:34:24;;;;;;;2.13;1.10;;;;;;;;;;5054748;28;20066;-77
2022/02/16 14:36:50;;;;;;;3.08;1.73;;;;;;;;;;5070959;28;20029;-75
2022/02/16 14:39:16;;;;;;;3.90;2.30;;;;;;;;;;5073432;28;20050;-75
2022/02/16 14:41:43;;;;;;;6.05;3.20;;;;;;;;;;5053655;28;20036;-75
2022/02/16 14:44:11;;;;;;;3.05;1.27;;;;;;;;;;5069423;28;20028;-75
2022/02/16 14:46:38;;;;;;;2.53;1.52;;;;;;;;;;5069024;28;20025;-75
2022/02/16 14:49:04;;;;;;;4.70;3.78;;;;;;;;;;5054048;28;20025;-74
2022/02/16 14:51:33;;;;;;;1.20;0.70;;;;;;;;;;5072501;28;20020;-75
2022/02/16 14:54:00;;;;;;;1.55;1.10;;;;;;;;;;5067791;28;20135;-75